Time;durP1;ratioP1;P1;durP2;ratioP2;P2;SDS_P1;SDS_P2;PMS_P1;PMS_P2;Temp;Humidity;BMP_temperature;BMP_pressure;BME280_temperature;BME280_humidity;BME280_pressure;Samples;Min_cycle;Max_cycle;Signal;HPM_P1;HPM_P2
2021/10/13 00:00:33;;;;;;;2.53;2.10;;;;;;;;;;5017309;28;20223;-42
2021/10/13 00:02:59;;;;;;;2.08;1.88;;;;;;;;;;5018206;28;20260;-42
2021/10/13 00:05:25;;;;;;;2.10;1.90;;;;;;;;;;5017547;28;20181;-42
2021/10/13 00:07:51;;;;;;;2.30;2.10;;;;;;;;;;5019644;28;20208;-42
2021/10/13 00:10:17;;;;;;;1.95;1.80;;;;;;;;;;5037270;28;20200;-42
2021/10/13 00:12:43;;;;;;;2.38;1.95;;;;;;;;;;5023722;28;20177;-42
2021/10/13 00:15:12;;;;;;;2.30;1.85;;;;;;;;;;5016781;28;20200;-42
2021/10/13 00:17:39;;;;;;;2.08;1.98;;;;;;;;;;5031052;28;20183;-42
2021/10/13 00:20:05;;;;;;;2.30;2.10;;;;;;;;;;5018124;28;20183;-42
2021/10/13 00:22:31;;;;;;;2.25;2.05;;;;;;;;;;5024839;28;20481;-42
2021/10/13 00:24:57;;;;;;;2.00;1.80;;;;;;;;;;5019196;28;20180;-42
2021/10/13 00:27:23;;;;;;;2.30;2.10;;;;;;;;;;5017282;28;20188;-42
2021/10/13 00:29:50;;;;;;;2.05;1.90;;;;;;;;;;5032586;28;20207;-42
2021/10/13 00:32:15;;;;;;;2.13;1.60;;;;;;;;;;5023527;28;20544;-42
2021/10/13 00:34:41;;;;;;;1.95;1.73;;;;;;;;;;5035836;28;20275;-42
2021/10/13 00:37:07;;;;;;;2.10;1.90;;;;;;;;;;5034530;28;20200;-42
2021/10/13 00:39:33;;;;;;;1.75;1.65;;;;;;;;;;5021292;28;20208;-42
2021/10/13 00:41:59;;;;;;;2.53;2.10;;;;;;;;;;5025203;28;20187;-42
2021/10/13 00:44:25;;;;;;;1.88;1.77;;;;;;;;;;5035671;28;20810;-42
2021/10/13 00:46:51;;;;;;;2.20;2.00;;;;;;;;;;5033957;28;20180;-42
2021/10/13 00:49:17;;;;;;;1.88;1.77;;;;;;;;;;5023688;28;20188;-42
2021/10/13 00:51:43;;;;;;;1.65;1.55;;;;;;;;;;5033189;28;20176;-42
2021/10/13 00:54:10;;;;;;;2.30;2.10;;;;;;;;;;5032660;28;20235;-42
2021/10/13 00:56:36;;;;;;;1.60;1.50;;;;;;;;;;5024307;28;20200;-42
2021/10/13 00:59:02;;;;;;;1.52;1.42;;;;;;;;;;5030683;28;20849;-42
2021/10/13 01:01:34;;;;;;;1.92;1.80;;;;;;;;;;5034385;28;20216;-42
2021/10/13 01:04:11;;;;;;;3.00;1.85;;;;;;;;;;5017150;28;20250;-42
2021/10/13 01:06:47;;;;;;;1.70;1.60;;;;;;;;;;5016562;28;20172;-42
2021/10/13 01:09:20;;;;;;;1.70;1.60;;;;;;;;;;5027615;28;20179;-42
2021/10/13 01:11:49;;;;;;;1.85;1.70;;;;;;;;;;5021451;28;20444;-42
2021/10/13 01:14:32;;;;;;;2.00;1.83;;;;;;;;;;5035728;28;20175;-42
2021/10/13 01:17:19;;;;;;;2.30;1.77;;;;;;;;;;5031493;28;20247;-42
2021/10/13 01:19:45;;;;;;;1.42;1.33;;;;;;;;;;5031867;28;20234;-42
2021/10/13 01:22:17;;;;;;;1.60;1.50;;;;;;;;;;5023505;28;20184;-42
2021/10/13 01:24:56;;;;;;;1.60;1.50;;;;;;;;;;5034954;28;20226;-42
2021/10/13 01:27:37;;;;;;;1.60;1.50;;;;;;;;;;5017934;28;20192;-42
2021/10/13 01:30:04;;;;;;;1.52;1.42;;;;;;;;;;5018539;28;20192;-41
2021/10/13 01:32:32;;;;;;;1.60;1.50;;;;;;;;;;5028468;28;20180;-42
2021/10/13 01:34:59;;;;;;;1.83;1.73;;;;;;;;;;5029618;28;20572;-42
2021/10/13 01:37:38;;;;;;;1.80;1.70;;;;;;;;;;5034594;28;20183;-42
2021/10/13 01:40:05;;;;;;;1.42;1.40;;;;;;;;;;5034523;28;20263;-42
2021/10/13 01:42:31;;;;;;;1.80;1.70;;;;;;;;;;5015680;28;20551;-42
2021/10/13 01:44:59;;;;;;;1.67;1.58;;;;;;;;;;5015622;28;20540;-42
2021/10/13 01:47:26;;;;;;;1.90;1.80;;;;;;;;;;5028436;28;20169;-42
2021/10/13 01:49:54;;;;;;;1.50;1.40;;;;;;;;;;5016802;28;20211;-42
2021/10/13 01:52:20;;;;;;;1.50;1.40;;;;;;;;;;5015926;28;20173;-42
2021/10/13 01:54:47;;;;;;;1.30;1.20;;;;;;;;;;5017020;28;20187;-42
2021/10/13 01:57:13;;;;;;;1.40;1.30;;;;;;;;;;5019922;28;20662;-42
2021/10/13 01:59:41;;;;;;;1.70;1.60;;;;;;;;;;5015839;28;20168;-42
2021/10/13 02:02:08;;;;;;;1.48;1.38;;;;;;;;;;5023814;28;20320;-42
2021/10/13 02:04:41;;;;;;;1.50;1.38;;;;;;;;;;5015061;28;20179;-42
2021/10/13 02:07:09;;;;;;;1.63;1.52;;;;;;;;;;5015730;28;20499;-42
2021/10/13 02:09:35;;;;;;;1.40;1.30;;;;;;;;;;5022465;28;20244;-42
2021/10/13 02:12:01;;;;;;;2.45;1.55;;;;;;;;;;5026291;28;20527;-42
2021/10/13 02:14:29;;;;;;;1.30;1.20;;;;;;;;;;5034368;28;20226;-42
2021/10/13 02:16:57;;;;;;;1.50;1.40;;;;;;;;;;5027522;28;20203;-42
2021/10/13 02:19:25;;;;;;;1.60;1.50;;;;;;;;;;5035221;28;20568;-42
2021/10/13 02:21:53;;;;;;;1.50;1.40;;;;;;;;;;5033066;28;20259;-42
2021/10/13 02:24:22;;;;;;;1.50;1.40;;;;;;;;;;5028023;28;20183;-42
2021/10/13 02:26:49;;;;;;;1.60;1.50;;;;;;;;;;5026184;28;20183;-42
2021/10/13 02:29:20;;;;;;;1.48;1.38;;;;;;;;;;5034842;28;20180;-42
2021/10/13 02:31:46;;;;;;;1.40;1.30;;;;;;;;;;5034499;28;20346;-42
2021/10/13 02:34:13;;;;;;;1.58;1.48;;;;;;;;;;5034164;28;20180;-42
2021/10/13 02:36:39;;;;;;;1.35;1.25;;;;;;;;;;5032786;28;20238;-42
2021/10/13 02:39:05;;;;;;;1.17;1.15;;;;;;;;;;5030743;28;20226;-42
2021/10/13 02:41:31;;;;;;;2.47;1.48;;;;;;;;;;5014976;28;20546;-42
2021/10/13 02:43:58;;;;;;;1.15;1.15;;;;;;;;;;5020152;28;20287;-42
2021/10/13 02:46:28;;;;;;;1.40;1.30;;;;;;;;;;5015256;28;20276;-42
2021/10/13 02:49:09;;;;;;;1.60;1.50;;;;;;;;;;5015187;28;20191;-42
2021/10/13 02:51:44;;;;;;;1.83;1.67;;;;;;;;;;5014827;28;20184;-42
2021/10/13 02:54:17;;;;;;;1.88;1.40;;;;;;;;;;5023045;28;20193;-42
2021/10/13 02:56:47;;;;;;;1.58;1.48;;;;;;;;;;5024690;28;20235;-42
2021/10/13 02:59:16;;;;;;;1.33;1.23;;;;;;;;;;5020713;28;20494;-42
2021/10/13 03:01:43;;;;;;;1.30;1.20;;;;;;;;;;5019545;28;20221;-42
2021/10/13 03:04:11;;;;;;;1.50;1.40;;;;;;;;;;5018431;28;20164;-42
2021/10/13 03:06:39;;;;;;;1.27;1.27;;;;;;;;;;5030755;28;20234;-42
2021/10/13 03:09:05;;;;;;;1.92;1.50;;;;;;;;;;5038605;28;20176;-42
2021/10/13 03:11:33;;;;;;;1.40;1.30;;;;;;;;;;5030274;28;20266;-42
2021/10/13 03:14:00;;;;;;;1.40;1.30;;;;;;;;;;5030437;28;20176;-42
2021/10/13 03:16:27;;;;;;;1.27;1.20;;;;;;;;;;5028527;28;20614;-42
2021/10/13 03:18:53;;;;;;;1.48;1.38;;;;;;;;;;5018581;28;20173;-42
2021/10/13 03:21:20;;;;;;;1.67;1.58;;;;;;;;;;5019541;28;20193;-42
2021/10/13 03:23:46;;;;;;;1.10;1.10;;;;;;;;;;5018095;28;20248;-42
2021/10/13 03:26:13;;;;;;;1.48;1.38;;;;;;;;;;5029065;28;20180;-42
2021/10/13 03:28:40;;;;;;;1.50;1.40;;;;;;;;;;5035671;28;20192;-42
2021/10/13 03:31:06;;;;;;;1.40;1.30;;;;;;;;;;5028137;28;20199;-42
2021/10/13 03:33:38;;;;;;;1.10;1.10;;;;;;;;;;5033820;28;20219;-42
2021/10/13 03:36:05;;;;;;;1.45;1.35;;;;;;;;;;5036218;28;20200;-42
2021/10/13 03:38:31;;;;;;;1.50;1.40;;;;;;;;;;5036714;28;20206;-42
2021/10/13 03:41:00;;;;;;;1.55;1.45;;;;;;;;;;5023566;28;20180;-42
2021/10/13 03:43:26;;;;;;;1.23;1.20;;;;;;;;;;5017358;28;20176;-42
2021/10/13 03:45:52;;;;;;;1.65;1.45;;;;;;;;;;5028635;28;20467;-42
2021/10/13 03:48:18;;;;;;;1.35;1.25;;;;;;;;;;5037571;28;20170;-42
2021/10/13 03:50:45;;;;;;;1.63;1.50;;;;;;;;;;5028046;28;20176;-42
2021/10/13 03:53:11;;;;;;;2.28;1.20;;;;;;;;;;5017715;28;20215;-42
2021/10/13 03:55:37;;;;;;;1.63;1.52;;;;;;;;;;5029161;28;20208;-42
2021/10/13 03:58:03;;;;;;;1.50;1.40;;;;;;;;;;5037488;28;20168;-42
2021/10/13 04:00:29;;;;;;;1.27;1.27;;;;;;;;;;5035440;28;20187;-42
2021/10/13 04:02:55;;;;;;;1.98;1.40;;;;;;;;;;5036117;28;20182;-42
2021/10/13 04:05:21;;;;;;;1.95;1.40;;;;;;;;;;5036359;28;20570;-42
2021/10/13 04:07:47;;;;;;;1.40;1.30;;;;;;;;;;5034574;28;20187;-42
2021/10/13 04:10:14;;;;;;;1.30;1.20;;;;;;;;;;5032810;28;20172;-41
2021/10/13 04:12:40;;;;;;;1.92;1.67;;;;;;;;;;5037104;28;20172;-42
2021/10/13 04:15:08;;;;;;;1.83;1.67;;;;;;;;;;5035658;28;20574;-42
2021/10/13 04:17:34;;;;;;;1.58;1.48;;;;;;;;;;5017755;28;20552;-42
2021/10/13 04:20:05;;;;;;;2.10;1.40;;;;;;;;;;5017612;28;20172;-42
2021/10/13 04:22:30;;;;;;;1.77;1.20;;;;;;;;;;5018708;28;20469;-42
2021/10/13 04:24:57;;;;;;;1.55;1.45;;;;;;;;;;5035783;28;20221;-42
2021/10/13 04:27:23;;;;;;;5.75;1.90;;;;;;;;;;5036367;28;20218;-42
2021/10/13 04:29:49;;;;;;;7.03;2.15;;;;;;;;;;5031259;28;20251;-42
2021/10/13 04:32:15;;;;;;;8.52;1.60;;;;;;;;;;5022170;28;20187;-42
2021/10/13 04:34:41;;;;;;;4.53;1.80;;;;;;;;;;5033253;28;20204;-42
2021/10/13 04:37:07;;;;;;;5.40;1.80;;;;;;;;;;5030767;28;20479;-42
2021/10/13 04:39:33;;;;;;;5.20;1.80;;;;;;;;;;5032916;28;20194;-42
2021/10/13 04:41:59;;;;;;;7.88;1.60;;;;;;;;;;5019344;28;20188;-42
2021/10/13 04:44:25;;;;;;;7.05;1.33;;;;;;;;;;5016536;28;20555;-42
2021/10/13 04:46:51;;;;;;;7.88;2.15;;;;;;;;;;5032558;28;20184;-42
2021/10/13 04:49:17;;;;;;;5.63;1.95;;;;;;;;;;5022416;28;20275;-42
2021/10/13 04:51:43;;;;;;;3.78;1.60;;;;;;;;;;5021813;28;20177;-42
2021/10/13 04:54:09;;;;;;;3.55;1.42;;;;;;;;;;5020426;28;20249;-42
2021/10/13 04:56:35;;;;;;;2.53;1.45;;;;;;;;;;5026143;28;20730;-42
2021/10/13 04:59:01;;;;;;;5.18;1.50;;;;;;;;;;5028468;28;20191;-42
2021/10/13 05:01:27;;;;;;;4.50;1.70;;;;;;;;;;5027654;28;20198;-42
2021/10/13 05:03:53;;;;;;;4.63;1.60;;;;;;;;;;5024701;28;20177;-42
2021/10/13 05:06:19;;;;;;;3.53;1.80;;;;;;;;;;5019221;28;20180;-42
2021/10/13 05:08:45;;;;;;;4.43;1.80;;;;;;;;;;5020431;28;20187;-42
2021/10/13 05:11:11;;;;;;;3.53;1.58;;;;;;;;;;5017381;28;20181;-42
2021/10/13 05:13:37;;;;;;;3.40;1.63;;;;;;;;;;5015047;28;20176;-42
2021/10/13 05:16:03;;;;;;;2.60;1.50;;;;;;;;;;5020832;28;20239;-42
2021/10/13 05:18:29;;;;;;;2.97;1.42;;;;;;;;;;5029055;28;20180;-42
2021/10/13 05:20:55;;;;;;;3.58;1.77;;;;;;;;;;5031458;28;20172;-42
2021/10/13 05:23:21;;;;;;;3.85;1.75;;;;;;;;;;5034516;28;20413;-42
2021/10/13 05:25:47;;;;;;;2.15;1.50;;;;;;;;;;5022786;28;20185;-42
2021/10/13 05:28:13;;;;;;;1.98;1.58;;;;;;;;;;5033561;28;20180;-42
2021/10/13 05:30:39;;;;;;;2.65;1.42;;;;;;;;;;5015834;28;20533;-42
2021/10/13 05:33:05;;;;;;;3.50;1.60;;;;;;;;;;5026893;28;20184;-42
2021/10/13 05:35:31;;;;;;;4.20;1.80;;;;;;;;;;5034810;28;20642;-42
2021/10/13 05:37:57;;;;;;;4.03;1.60;;;;;;;;;;5033821;28;20226;-42
2021/10/13 05:40:23;;;;;;;1.95;1.50;;;;;;;;;;5032257;28;20218;-42
2021/10/13 05:42:49;;;;;;;2.30;1.60;;;;;;;;;;5021973;28;20183;-42
2021/10/13 05:45:15;;;;;;;2.67;1.55;;;;;;;;;;5018763;28;20179;-42
2021/10/13 05:47:41;;;;;;;2.30;1.70;;;;;;;;;;5029917;28;20584;-42
2021/10/13 05:50:07;;;;;;;2.42;1.52;;;;;;;;;;5034190;28;20234;-42
2021/10/13 05:52:33;;;;;;;1.85;1.40;;;;;;;;;;5035065;28;20187;-42
2021/10/13 05:54:59;;;;;;;3.58;1.55;;;;;;;;;;5023586;28;20180;-42
2021/10/13 05:57:25;;;;;;;1.50;1.40;;;;;;;;;;5015725;28;20215;-42
2021/10/13 06:00:00;;;;;;;3.13;1.60;;;;;;;;;;5029287;28;20180;-42
2021/10/13 06:02:26;;;;;;;2.25;1.30;;;;;;;;;;5025335;28;20208;-42
2021/10/13 06:04:53;;;;;;;1.95;1.30;;;;;;;;;;5030993;28;20176;-42
2021/10/13 06:07:19;;;;;;;2.15;1.48;;;;;;;;;;5029623;28;20274;-42
2021/10/13 06:09:45;;;;;;;3.42;1.45;;;;;;;;;;5034511;28;20188;-42
2021/10/13 06:12:11;;;;;;;2.85;1.25;;;;;;;;;;5025708;28;20191;-42
2021/10/13 06:14:38;;;;;;;2.38;1.42;;;;;;;;;;5028083;28;20184;-42
2021/10/13 06:17:06;;;;;;;1.58;1.20;;;;;;;;;;5021951;28;20291;-42
2021/10/13 06:19:32;;;;;;;2.47;1.50;;;;;;;;;;5017727;28;20215;-42
2021/10/13 06:21:58;;;;;;;1.20;1.10;;;;;;;;;;5029807;28;20180;-42
2021/10/13 06:24:24;;;;;;;1.10;1.00;;;;;;;;;;5029354;28;20265;-42
2021/10/13 06:26:50;;;;;;;1.55;1.20;;;;;;;;;;5015730;28;20231;-42
2021/10/13 06:29:16;;;;;;;1.67;1.30;;;;;;;;;;5030285;28;20184;-42
2021/10/13 06:31:42;;;;;;;1.35;1.15;;;;;;;;;;5024738;28;20563;-42
2021/10/13 06:34:08;;;;;;;2.03;1.45;;;;;;;;;;5027428;28;20233;-42
2021/10/13 06:36:34;;;;;;;1.98;1.42;;;;;;;;;;5020819;28;20235;-42
2021/10/13 06:39:00;;;;;;;2.75;1.58;;;;;;;;;;5013167;28;20266;-42
2021/10/13 06:41:28;;;;;;;2.50;1.30;;;;;;;;;;5015735;28;20226;-42
2021/10/13 06:43:55;;;;;;;1.55;1.20;;;;;;;;;;5029727;28;20179;-42
2021/10/13 06:46:20;;;;;;;1.95;1.23;;;;;;;;;;5017199;28;20184;-42
2021/10/13 06:48:46;;;;;;;1.15;1.05;;;;;;;;;;5031827;28;20757;-42
2021/10/13 06:51:12;;;;;;;2.17;1.25;;;;;;;;;;5023624;28;20703;-42
2021/10/13 06:53:38;;;;;;;2.17;1.30;;;;;;;;;;5014589;28;20222;-42
2021/10/13 06:56:05;;;;;;;1.85;1.33;;;;;;;;;;5028796;28;20626;-42
2021/10/13 06:58:31;;;;;;;1.45;1.35;;;;;;;;;;5028041;28;20181;-42
2021/10/13 07:00:57;;;;;;;1.60;1.20;;;;;;;;;;5014364;28;20585;-42
2021/10/13 07:03:23;;;;;;;1.92;0.98;;;;;;;;;;5013988;28;20173;-42
2021/10/13 07:05:49;;;;;;;2.33;1.20;;;;;;;;;;5025792;28;20446;-42
2021/10/13 07:08:16;;;;;;;1.20;1.10;;;;;;;;;;5033615;28;20180;-42
2021/10/13 07:10:42;;;;;;;1.20;1.10;;;;;;;;;;5028331;28;20172;-42
2021/10/13 07:13:09;;;;;;;1.00;1.00;;;;;;;;;;5023625;28;20241;-42
2021/10/13 07:15:35;;;;;;;2.30;1.10;;;;;;;;;;5019394;28;20337;-42
2021/10/13 07:18:02;;;;;;;1.63;1.20;;;;;;;;;;5025710;28;20541;-42
2021/10/13 07:20:28;;;;;;;1.20;1.10;;;;;;;;;;5029765;28;20173;-42
2021/10/13 07:22:54;;;;;;;1.30;1.05;;;;;;;;;;5028929;28;20188;-42
2021/10/13 07:25:24;;;;;;;1.42;1.00;;;;;;;;;;5028405;28;20247;-42
2021/10/13 07:27:50;;;;;;;1.80;1.20;;;;;;;;;;5022894;28;20664;-42
2021/10/13 07:30:18;;;;;;;2.33;1.33;;;;;;;;;;5016320;28;20230;-42
2021/10/13 07:32:45;;;;;;;1.73;1.20;;;;;;;;;;5028918;28;20193;-42
2021/10/13 07:35:11;;;;;;;2.97;1.15;;;;;;;;;;5025259;28;20184;-42
2021/10/13 07:37:37;;;;;;;3.55;1.10;;;;;;;;;;5034038;28;20183;-42
2021/10/13 07:40:03;;;;;;;0.90;0.90;;;;;;;;;;5033784;28;20172;-42
2021/10/13 07:42:29;;;;;;;1.77;1.25;;;;;;;;;;5031974;28;20427;-42
2021/10/13 07:44:55;;;;;;;1.25;1.13;;;;;;;;;;5029544;28;20180;-42
2021/10/13 07:47:21;;;;;;;1.25;1.00;;;;;;;;;;5028169;28;20215;-42
2021/10/13 07:49:47;;;;;;;1.13;1.02;;;;;;;;;;5037025;28;20172;-42
2021/10/13 07:52:13;;;;;;;1.95;1.00;;;;;;;;;;5022565;28;20288;-42
2021/10/13 07:54:39;;;;;;;1.00;1.00;;;;;;;;;;5028535;28;20531;-42
2021/10/13 07:57:05;;;;;;;1.30;1.10;;;;;;;;;;5018830;28;20226;-42
2021/10/13 07:59:31;;;;;;;1.77;0.88;;;;;;;;;;5018421;28;20188;-42
2021/10/13 08:01:57;;;;;;;4.03;1.48;;;;;;;;;;5036194;28;20210;-42
2021/10/13 08:04:24;;;;;;;1.30;1.00;;;;;;;;;;5036750;28;20201;-42
2021/10/13 08:06:50;;;;;;;3.05;1.38;;;;;;;;;;5034749;28;20191;-42
2021/10/13 08:09:16;;;;;;;1.33;1.20;;;;;;;;;;5034432;28;20393;-42
2021/10/13 08:11:43;;;;;;;1.50;1.40;;;;;;;;;;5021879;28;20270;-42
2021/10/13 08:14:09;;;;;;;3.78;1.35;;;;;;;;;;5016890;28;20207;-42
2021/10/13 08:16:35;;;;;;;1.33;1.23;;;;;;;;;;5023459;28;20239;-42
2021/10/13 08:19:01;;;;;;;2.25;1.48;;;;;;;;;;5032308;28;20183;-42
2021/10/13 08:21:27;;;;;;;1.65;1.55;;;;;;;;;;5027386;28;20183;-42
2021/10/13 08:23:53;;;;;;;1.75;1.20;;;;;;;;;;5023462;28;20243;-42
2021/10/13 08:26:19;;;;;;;17.52;8.30;;;;;;;;;;5027487;28;20213;-42
2021/10/13 08:28:45;;;;;;;68.18;26.98;;;;;;;;;;5016934;28;20192;-42
2021/10/13 08:31:11;;;;;;;56.53;23.60;;;;;;;;;;5020609;28;20503;-42
2021/10/13 08:33:37;;;;;;;47.45;18.20;;;;;;;;;;5031495;28;20263;-42
2021/10/13 08:36:04;;;;;;;32.42;12.95;;;;;;;;;;5030892;28;20198;-42
2021/10/13 08:38:29;;;;;;;38.85;11.75;;;;;;;;;;5032080;28;20187;-42
2021/10/13 08:40:55;;;;;;;29.23;11.10;;;;;;;;;;5031872;28;20467;-42
2021/10/13 08:43:21;;;;;;;40.80;12.68;;;;;;;;;;5027867;28;20180;-42
2021/10/13 08:45:48;;;;;;;35.55;12.20;;;;;;;;;;5036365;28;20183;-42
2021/10/13 08:48:14;;;;;;;34.53;11.80;;;;;;;;;;5023735;28;20180;-42
2021/10/13 08:50:40;;;;;;;31.67;10.70;;;;;;;;;;5023578;28;20824;-42
2021/10/13 08:53:11;;;;;;;27.08;10.25;;;;;;;;;;5026152;28;20543;-42
2021/10/13 08:55:39;;;;;;;26.25;9.15;;;;;;;;;;5020012;28;20456;-42
2021/10/13 08:58:21;;;;;;;22.52;8.98;;;;;;;;;;5016452;28;20196;-42
2021/10/13 09:00:51;;;;;;;26.63;8.77;;;;;;;;;;5016213;28;20208;-42
2021/10/13 09:03:27;;;;;;;24.02;8.18;;;;;;;;;;5016119;28;20196;-42
2021/10/13 09:05:53;;;;;;;20.83;7.63;;;;;;;;;;5026912;28;20239;-42
2021/10/13 09:08:19;;;;;;;18.92;7.00;;;;;;;;;;5016494;28;20189;-42
2021/10/13 09:10:45;;;;;;;24.27;7.90;;;;;;;;;;5026633;28;20676;-42
2021/10/13 09:13:16;;;;;;;23.55;7.45;;;;;;;;;;5035084;28;20199;-42
2021/10/13 09:15:52;;;;;;;26.10;8.38;;;;;;;;;;5025717;28;20459;-42
2021/10/13 09:18:25;;;;;;;22.15;7.55;;;;;;;;;;5035814;28;20434;-42
2021/10/13 09:20:52;;;;;;;19.90;7.18;;;;;;;;;;5025733;28;20544;-42
2021/10/13 09:23:28;;;;;;;20.63;7.22;;;;;;;;;;5018698;28;20180;-42
2021/10/13 09:26:08;;;;;;;20.83;6.43;;;;;;;;;;5015422;28;20188;-42
2021/10/13 09:28:34;;;;;;;23.70;7.50;;;;;;;;;;5017565;28;20176;-42
2021/10/13 09:31:10;;;;;;;16.50;6.10;;;;;;;;;;5018207;28;20261;-42
2021/10/13 09:33:36;;;;;;;17.17;7.10;;;;;;;;;;5029232;28;20188;-42
2021/10/13 09:36:11;;;;;;;19.60;6.43;;;;;;;;;;5034180;28;20618;-42
2021/10/13 09:38:41;;;;;;;12.93;6.13;;;;;;;;;;5035485;28;20275;-42
2021/10/13 09:41:07;;;;;;;19.48;6.05;;;;;;;;;;5030578;28;20263;-42
2021/10/13 09:43:34;;;;;;;16.33;5.20;;;;;;;;;;5023662;28;20263;-42
2021/10/13 09:46:08;;;;;;;16.17;5.85;;;;;;;;;;5030533;28;20519;-42
2021/10/13 09:48:35;;;;;;;13.65;4.82;;;;;;;;;;5024037;28;20177;-42
2021/10/13 09:51:15;;;;;;;8.00;4.30;;;;;;;;;;5016248;28;20756;-42
2021/10/13 09:53:41;;;;;;;15.07;5.30;;;;;;;;;;5027280;28;20593;-42
2021/10/13 09:56:07;;;;;;;16.58;4.60;;;;;;;;;;5034496;28;20207;-42
2021/10/13 09:58:34;;;;;;;11.65;4.70;;;;;;;;;;5035176;28;20176;-42
2021/10/13 10:01:08;;;;;;;18.50;5.22;;;;;;;;;;5033873;28;20191;-42
2021/10/13 10:03:35;;;;;;;11.07;4.25;;;;;;;;;;5015085;28;20196;-42
2021/10/13 10:06:01;;;;;;;12.00;4.13;;;;;;;;;;5024198;28;20184;-42
2021/10/13 10:08:27;;;;;;;9.73;4.47;;;;;;;;;;5029140;28;20198;-42
2021/10/13 10:11:03;;;;;;;8.23;4.30;;;;;;;;;;5034374;28;20524;-42
2021/10/13 10:13:34;;;;;;;15.45;4.00;;;;;;;;;;5029045;28;20175;-42
2021/10/13 10:16:00;;;;;;;10.70;4.13;;;;;;;;;;5020450;28;20222;-42
2021/10/13 10:18:31;;;;;;;10.82;4.97;;;;;;;;;;5033197;28;20183;-42
2021/10/13 10:21:15;;;;;;;10.43;4.05;;;;;;;;;;5034612;28;20807;-42
2021/10/13 10:23:41;;;;;;;8.10;3.80;;;;;;;;;;5034340;28;20191;-42
2021/10/13 10:26:25;;;;;;;7.82;3.55;;;;;;;;;;5034428;28;20211;-42
2021/10/13 10:28:54;;;;;;;8.90;3.47;;;;;;;;;;5034076;28;20566;-42
2021/10/13 10:31:29;;;;;;;9.13;3.17;;;;;;;;;;5022722;28;20509;-42
2021/10/13 10:34:04;;;;;;;10.05;3.60;;;;;;;;;;5030533;28;20185;-42
2021/10/13 10:36:31;;;;;;;6.82;2.78;;;;;;;;;;5016140;28;20208;-42
2021/10/13 10:38:57;;;;;;;5.68;3.00;;;;;;;;;;5017076;28;20183;-42
2021/10/13 10:41:39;;;;;;;8.20;3.33;;;;;;;;;;5027133;28;20187;-42
2021/10/13 10:44:27;;;;;;;5.40;3.20;;;;;;;;;;5027925;28;20234;-42
2021/10/13 10:47:04;;;;;;;7.68;3.10;;;;;;;;;;5015714;28;20176;-42
2021/10/13 10:49:54;;;;;;;6.30;2.90;;;;;;;;;;5014938;28;20225;-42
2021/10/13 10:52:22;;;;;;;7.38;3.20;;;;;;;;;;5021918;28;20182;-42
2021/10/13 10:54:56;;;;;;;6.97;3.30;;;;;;;;;;5025752;28;20193;-42
2021/10/13 10:57:35;;;;;;;6.18;3.00;;;;;;;;;;5033250;28;20222;-42
2021/10/13 11:00:04;;;;;;;9.10;3.53;;;;;;;;;;5015922;28;20191;-42
2021/10/13 11:02:30;;;;;;;10.25;3.10;;;;;;;;;;5017203;28;20303;-42
2021/10/13 11:05:06;;;;;;;6.82;3.05;;;;;;;;;;5021459;28;20216;-42
2021/10/13 11:07:33;;;;;;;8.13;3.03;;;;;;;;;;5016661;28;20191;-42
2021/10/13 11:10:03;;;;;;;4.90;2.70;;;;;;;;;;5014586;28;20579;-42
2021/10/13 11:12:46;;;;;;;7.88;3.08;;;;;;;;;;5023730;28;20709;-42
2021/10/13 11:15:12;;;;;;;7.45;2.95;;;;;;;;;;5017816;28;20191;-42
2021/10/13 11:17:38;;;;;;;8.98;3.10;;;;;;;;;;5028912;28;20211;-42
2021/10/13 11:20:11;;;;;;;4.85;2.72;;;;;;;;;;5031261;28;20187;-42
2021/10/13 11:22:37;;;;;;;5.60;2.65;;;;;;;;;;5027705;28;20192;-42
2021/10/13 11:25:19;;;;;;;6.20;2.75;;;;;;;;;;5028173;28;20180;-42
2021/10/13 11:28:02;;;;;;;7.75;3.00;;;;;;;;;;5026626;28;20199;-42
2021/10/13 11:30:29;;;;;;;6.03;2.75;;;;;;;;;;5019442;28;20184;-42
2021/10/13 11:32:55;;;;;;;7.57;2.85;;;;;;;;;;5031735;28;20245;-42
2021/10/13 11:35:22;;;;;;;5.32;2.40;;;;;;;;;;5036197;28;20172;-42
2021/10/13 11:37:49;;;;;;;4.82;2.50;;;;;;;;;;5036939;28;20188;-42
2021/10/13 11:40:16;;;;;;;5.97;3.08;;;;;;;;;;5034714;28;20191;-42
2021/10/13 11:42:42;;;;;;;3.55;2.25;;;;;;;;;;5031924;28;20214;-43
2021/10/13 11:45:18;;;;;;;8.73;2.70;;;;;;;;;;5034426;28;20194;-42
2021/10/13 11:47:44;;;;;;;7.25;2.83;;;;;;;;;;5036196;28;20286;-42
2021/10/13 11:50:12;;;;;;;5.80;2.55;;;;;;;;;;5034675;28;20190;-42
2021/10/13 11:52:40;;;;;;;7.72;2.80;;;;;;;;;;5033032;28;20179;-42
2021/10/13 11:55:09;;;;;;;8.50;2.97;;;;;;;;;;5034075;28;20555;-42
2021/10/13 11:57:37;;;;;;;7.25;3.13;;;;;;;;;;5037014;28;20207;-42
2021/10/13 12:00:15;;;;;;;6.47;2.75;;;;;;;;;;5037090;28;20213;-42
2021/10/13 12:02:43;;;;;;;6.07;3.05;;;;;;;;;;5037143;28;20225;-42
2021/10/13 12:05:09;;;;;;;8.32;2.88;;;;;;;;;;5033402;28;20284;-42
2021/10/13 12:07:42;;;;;;;4.72;2.45;;;;;;;;;;5028859;28;20451;-42
2021/10/13 12:10:09;;;;;;;5.35;2.40;;;;;;;;;;5032444;28;20198;-42
2021/10/13 12:12:35;;;;;;;6.95;2.65;;;;;;;;;;5042228;28;20191;-42
2021/10/13 12:15:15;;;;;;;6.28;2.95;;;;;;;;;;5041419;28;20176;-42
2021/10/13 12:17:41;;;;;;;7.05;2.70;;;;;;;;;;5030331;28;20519;-42
2021/10/13 12:20:15;;;;;;;6.88;2.55;;;;;;;;;;5035003;28;20176;-42
2021/10/13 12:22:45;;;;;;;6.88;2.22;;;;;;;;;;5035561;28;20176;-42
2021/10/13 12:25:31;;;;;;;8.32;2.65;;;;;;;;;;5035043;28;20180;-42
2021/10/13 12:27:58;;;;;;;5.82;2.58;;;;;;;;;;5034948;28;20175;-42
2021/10/13 12:30:34;;;;;;;3.88;2.00;;;;;;;;;;5035714;28;20190;-42
2021/10/13 12:33:08;;;;;;;5.22;2.25;;;;;;;;;;5032218;28;20194;-42
2021/10/13 12:35:34;;;;;;;6.35;2.50;;;;;;;;;;5027330;28;20175;-42
2021/10/13 12:38:01;;;;;;;4.07;2.17;;;;;;;;;;5025865;28;20271;-42
2021/10/13 12:40:27;;;;;;;4.35;2.33;;;;;;;;;;5016851;28;20616;-42
2021/10/13 12:42:55;;;;;;;3.22;2.00;;;;;;;;;;5016875;28;20212;-42
2021/10/13 12:45:27;;;;;;;4.50;2.17;;;;;;;;;;5019697;28;20184;-42
2021/10/13 12:48:12;;;;;;;5.85;2.22;;;;;;;;;;5021663;28;20180;-42
2021/10/13 12:50:38;;;;;;;4.88;2.40;;;;;;;;;;5021432;28;20176;-42
2021/10/13 12:53:04;;;;;;;5.22;2.03;;;;;;;;;;5017086;28;20518;-42
2021/10/13 12:55:30;;;;;;;9.70;2.60;;;;;;;;;;5026227;28;20176;-42
2021/10/13 12:57:56;;;;;;;5.43;2.33;;;;;;;;;;5017069;28;20189;-43
2021/10/13 13:00:22;;;;;;;4.43;2.20;;;;;;;;;;5020458;28;20203;-42
2021/10/13 13:02:48;;;;;;;3.88;1.70;;;;;;;;;;5019579;28;20297;-42
2021/10/13 13:05:14;;;;;;;3.83;1.98;;;;;;;;;;5033963;28;20575;-42
2021/10/13 13:07:41;;;;;;;4.68;2.25;;;;;;;;;;5028915;28;20479;-42
2021/10/13 13:10:07;;;;;;;4.07;1.77;;;;;;;;;;5017146;28;20202;-42
2021/10/13 13:12:33;;;;;;;3.80;2.05;;;;;;;;;;5015717;28;20192;-42
2021/10/13 13:14:59;;;;;;;2.53;1.60;;;;;;;;;;5021172;28;20199;-42
2021/10/13 13:17:25;;;;;;;3.70;1.98;;;;;;;;;;5035986;28;20212;-42
2021/10/13 13:19:51;;;;;;;3.42;2.05;;;;;;;;;;5035907;28;20804;-42
2021/10/13 13:22:17;;;;;;;4.40;1.95;;;;;;;;;;5033858;28;20190;-42
2021/10/13 13:24:42;;;;;;;3.50;1.92;;;;;;;;;;5017892;28;20196;-43
2021/10/13 13:27:08;;;;;;;5.85;2.10;;;;;;;;;;5016294;28;20192;-42
2021/10/13 13:29:34;;;;;;;3.22;1.83;;;;;;;;;;5015973;28;20457;-43
2021/10/13 13:32:01;;;;;;;3.40;1.85;;;;;;;;;;5032681;28;20202;-42
2021/10/13 13:34:27;;;;;;;2.28;1.60;;;;;;;;;;5035246;28;20168;-42
2021/10/13 13:36:53;;;;;;;5.20;1.88;;;;;;;;;;5035017;28;20207;-42
2021/10/13 13:39:22;;;;;;;4.28;1.85;;;;;;;;;;5033287;28;20208;-42
2021/10/13 13:41:48;;;;;;;5.97;2.22;;;;;;;;;;5035267;28;20188;-42
2021/10/13 13:44:14;;;;;;;3.50;1.73;;;;;;;;;;5034517;28;20164;-42
2021/10/13 13:46:40;;;;;;;3.45;1.80;;;;;;;;;;5032633;28;20188;-42
2021/10/13 13:49:07;;;;;;;2.97;1.63;;;;;;;;;;5015030;28;20180;-42
2021/10/13 13:51:33;;;;;;;2.42;1.73;;;;;;;;;;5030079;28;20211;-42
2021/10/13 13:53:59;;;;;;;3.55;1.80;;;;;;;;;;5031636;28;20219;-42
2021/10/13 13:56:24;;;;;;;3.53;1.88;;;;;;;;;;5017314;28;20207;-42
2021/10/13 13:58:50;;;;;;;2.08;1.45;;;;;;;;;;5021181;28;20180;-42
2021/10/13 14:01:16;;;;;;;4.22;1.63;;;;;;;;;;5034522;28;20283;-42
2021/10/13 14:03:42;;;;;;;2.50;1.23;;;;;;;;;;5033999;28;20447;-42
2021/10/13 14:06:09;;;;;;;2.58;1.45;;;;;;;;;;5023478;28;20220;-42
2021/10/13 14:08:35;;;;;;;3.15;1.40;;;;;;;;;;5014414;28;20263;-42
2021/10/13 14:11:01;;;;;;;1.63;1.20;;;;;;;;;;5022698;28;20244;-42
2021/10/13 14:13:27;;;;;;;3.95;1.83;;;;;;;;;;5020243;28;20226;-42
2021/10/13 14:15:53;;;;;;;6.28;1.77;;;;;;;;;;5015144;28;20215;-42
2021/10/13 14:18:19;;;;;;;4.45;1.58;;;;;;;;;;5031323;28;20183;-42
2021/10/13 14:20:45;;;;;;;3.38;1.60;;;;;;;;;;5031765;28;20175;-42
2021/10/13 14:23:11;;;;;;;2.67;1.42;;;;;;;;;;5019293;28;20207;-42
2021/10/13 14:25:37;;;;;;;6.97;1.60;;;;;;;;;;5014779;28;20500;-42
2021/10/13 14:28:03;;;;;;;2.72;1.48;;;;;;;;;;5026930;28;20180;-42
2021/10/13 14:30:29;;;;;;;4.35;1.50;;;;;;;;;;5034661;28;20190;-42
2021/10/13 14:32:55;;;;;;;5.00;1.70;;;;;;;;;;5032364;28;20187;-42
2021/10/13 14:35:21;;;;;;;5.88;1.63;;;;;;;;;;5033444;28;20266;-42
2021/10/13 14:37:47;;;;;;;5.35;1.60;;;;;;;;;;5034448;28;20527;-42
2021/10/13 14:40:15;;;;;;;3.17;1.55;;;;;;;;;;5034302;28;20180;-42
2021/10/13 14:42:41;;;;;;;3.42;1.42;;;;;;;;;;5034732;28;20172;-42
2021/10/13 14:45:08;;;;;;;3.38;1.30;;;;;;;;;;5032307;28;20176;-42